sensor_id;sensor_type;location;lat;lon;timestamp;P1;durP1;ratioP1;P2;durP2;ratioP2
3133;SDS011;1577;49.912;10.924;2023-04-24T00:01:41;3.20;;;1.50;;
3133;SDS011;1577;49.912;10.924;2023-04-24T00:04:07;2.50;;;1.67;;
3133;SDS011;1577;49.912;10.924;2023-04-24T00:06:35;3.50;;;1.37;;
3133;SDS011;1577;49.912;10.924;2023-04-24T00:09:07;2.60;;;1.37;;
3133;SDS011;1577;49.912;10.924;2023-04-24T00:11:36;1.97;;;1.40;;
3133;SDS011;1577;49.912;10.924;2023-04-24T00:14:02;2.27;;;1.50;;
3133;SDS011;1577;49.912;10.924;2023-04-24T00:16:28;5.13;;;1.57;;
3133;SDS011;1577;49.912;10.924;2023-04-24T00:18:54;5.43;;;2.00;;
3133;SDS011;1577;49.912;10.924;2023-04-24T00:21:20;5.77;;;2.03;;
3133;SDS011;1577;49.912;10.924;2023-04-24T00:23:46;2.80;;;1.93;;
3133;SDS011;1577;49.912;10.924;2023-04-24T00:26:12;5.90;;;2.00;;
3133;SDS011;1577;49.912;10.924;2023-04-24T00:28:38;2.70;;;1.70;;
3133;SDS011;1577;49.912;10.924;2023-04-24T00:31:04;2.80;;;2.10;;
3133;SDS011;1577;49.912;10.924;2023-04-24T00:33:30;3.97;;;1.90;;
3133;SDS011;1577;49.912;10.924;2023-04-24T00:35:55;2.03;;;1.40;;
3133;SDS011;1577;49.912;10.924;2023-04-24T00:38:21;3.67;;;1.87;;
3133;SDS011;1577;49.912;10.924;2023-04-24T00:40:47;2.80;;;2.10;;
3133;SDS011;1577;49.912;10.924;2023-04-24T00:43:14;2.23;;;1.47;;
3133;SDS011;1577;49.912;10.924;2023-04-24T00:45:40;2.73;;;1.83;;
3133;SDS011;1577;49.912;10.924;2023-04-24T00:48:06;3.17;;;1.50;;
3133;SDS011;1577;49.912;10.924;2023-04-24T00:50:32;3.10;;;1.50;;
3133;SDS011;1577;49.912;10.924;2023-04-24T00:53:00;4.67;;;1.93;;
3133;SDS011;1577;49.912;10.924;2023-04-24T00:55:26;3.10;;;1.70;;
3133;SDS011;1577;49.912;10.924;2023-04-24T00:57:51;5.43;;;2.00;;
3133;SDS011;1577;49.912;10.924;2023-04-24T01:00:17;2.37;;;1.43;;
3133;SDS011;1577;49.912;10.924;2023-04-24T01:02:44;2.93;;;1.50;;
3133;SDS011;1577;49.912;10.924;2023-04-24T01:05:10;2.23;;;1.40;;
3133;SDS011;1577;49.912;10.924;2023-04-24T01:07:37;2.53;;;1.40;;
3133;SDS011;1577;49.912;10.924;2023-04-24T01:10:04;3.10;;;1.43;;
3133;SDS011;1577;49.912;10.924;2023-04-24T01:12:30;1.80;;;1.20;;
3133;SDS011;1577;49.912;10.924;2023-04-24T01:14:57;2.47;;;1.40;;
3133;SDS011;1577;49.912;10.924;2023-04-24T01:17:23;2.47;;;1.20;;
3133;SDS011;1577;49.912;10.924;2023-04-24T01:19:48;1.67;;;1.00;;
3133;SDS011;1577;49.912;10.924;2023-04-24T01:22:14;3.83;;;1.40;;
3133;SDS011;1577;49.912;10.924;2023-04-24T01:24:41;2.30;;;1.20;;
3133;SDS011;1577;49.912;10.924;2023-04-24T01:27:08;2.07;;;1.30;;
3133;SDS011;1577;49.912;10.924;2023-04-24T01:29:35;2.80;;;1.20;;
3133;SDS011;1577;49.912;10.924;2023-04-24T01:32:01;1.70;;;1.10;;
3133;SDS011;1577;49.912;10.924;2023-04-24T01:34:28;1.83;;;1.30;;
3133;SDS011;1577;49.912;10.924;2023-04-24T01:36:55;1.97;;;1.10;;
3133;SDS011;1577;49.912;10.924;2023-04-24T01:39:21;2.77;;;1.20;;
3133;SDS011;1577;49.912;10.924;2023-04-24T01:41:48;1.90;;;1.00;;
3133;SDS011;1577;49.912;10.924;2023-04-24T01:44:15;2.43;;;1.30;;
3133;SDS011;1577;49.912;10.924;2023-04-24T01:46:41;2.63;;;1.50;;
3133;SDS011;1577;49.912;10.924;2023-04-24T01:49:07;2.13;;;1.20;;
3133;SDS011;1577;49.912;10.924;2023-04-24T01:51:33;3.10;;;1.57;;
3133;SDS011;1577;49.912;10.924;2023-04-24T01:53:59;2.97;;;1.70;;
3133;SDS011;1577;49.912;10.924;2023-04-24T01:56:24;3.07;;;1.97;;
3133;SDS011;1577;49.912;10.924;2023-04-24T01:58:53;3.77;;;2.47;;
3133;SDS011;1577;49.912;10.924;2023-04-24T02:01:20;3.30;;;1.80;;
3133;SDS011;1577;49.912;10.924;2023-04-24T02:03:46;3.40;;;2.00;;
3133;SDS011;1577;49.912;10.924;2023-04-24T02:06:11;3.20;;;2.20;;
3133;SDS011;1577;49.912;10.924;2023-04-24T02:08:37;3.40;;;1.90;;
3133;SDS011;1577;49.912;10.924;2023-04-24T02:11:03;5.90;;;2.47;;
3133;SDS011;1577;49.912;10.924;2023-04-24T02:13:28;5.23;;;2.43;;
3133;SDS011;1577;49.912;10.924;2023-04-24T02:15:54;4.27;;;2.20;;
3133;SDS011;1577;49.912;10.924;2023-04-24T02:18:20;4.13;;;1.63;;
3133;SDS011;1577;49.912;10.924;2023-04-24T02:20:45;2.90;;;2.00;;
3133;SDS011;1577;49.912;10.924;2023-04-24T02:23:11;3.80;;;2.50;;
3133;SDS011;1577;49.912;10.924;2023-04-24T02:25:38;4.03;;;2.57;;
3133;SDS011;1577;49.912;10.924;2023-04-24T02:28:03;4.10;;;2.10;;
3133;SDS011;1577;49.912;10.924;2023-04-24T02:30:29;5.27;;;2.43;;
3133;SDS011;1577;49.912;10.924;2023-04-24T02:32:55;3.73;;;2.13;;
3133;SDS011;1577;49.912;10.924;2023-04-24T02:35:21;4.30;;;2.40;;
3133;SDS011;1577;49.912;10.924;2023-04-24T02:37:46;3.73;;;2.50;;
3133;SDS011;1577;49.912;10.924;2023-04-24T02:40:12;3.80;;;1.93;;
3133;SDS011;1577;49.912;10.924;2023-04-24T02:42:38;3.03;;;2.20;;
3133;SDS011;1577;49.912;10.924;2023-04-24T02:45:03;3.63;;;1.80;;
3133;SDS011;1577;49.912;10.924;2023-04-24T02:47:30;2.47;;;1.57;;
3133;SDS011;1577;49.912;10.924;2023-04-24T02:49:55;5.13;;;2.40;;
3133;SDS011;1577;49.912;10.924;2023-04-24T02:52:21;3.90;;;1.87;;
3133;SDS011;1577;49.912;10.924;2023-04-24T02:54:46;2.93;;;1.60;;
3133;SDS011;1577;49.912;10.924;2023-04-24T02:57:12;5.30;;;1.80;;
3133;SDS011;1577;49.912;10.924;2023-04-24T02:59:37;2.53;;;1.60;;
3133;SDS011;1577;49.912;10.924;2023-04-24T03:02:03;2.90;;;1.63;;
3133;SDS011;1577;49.912;10.924;2023-04-24T03:04:29;6.83;;;1.67;;
3133;SDS011;1577;49.912;10.924;2023-04-24T03:06:54;2.73;;;1.53;;
3133;SDS011;1577;49.912;10.924;2023-04-24T03:09:20;3.90;;;1.70;;
3133;SDS011;1577;49.912;10.924;2023-04-24T03:11:46;3.40;;;1.50;;
3133;SDS011;1577;49.912;10.924;2023-04-24T03:14:13;5.17;;;1.70;;
3133;SDS011;1577;49.912;10.924;2023-04-24T03:16:39;2.90;;;1.40;;
3133;SDS011;1577;49.912;10.924;2023-04-24T03:19:04;2.47;;;1.40;;
3133;SDS011;1577;49.912;10.924;2023-04-24T03:21:30;4.40;;;1.57;;
3133;SDS011;1577;49.912;10.924;2023-04-24T03:23:56;3.00;;;1.63;;
3133;SDS011;1577;49.912;10.924;2023-04-24T03:26:21;4.80;;;1.40;;
3133;SDS011;1577;49.912;10.924;2023-04-24T03:28:47;3.10;;;1.50;;
3133;SDS011;1577;49.912;10.924;2023-04-24T03:31:12;2.00;;;1.20;;
3133;SDS011;1577;49.912;10.924;2023-04-24T03:33:38;2.77;;;1.27;;
3133;SDS011;1577;49.912;10.924;2023-04-24T03:36:03;3.63;;;1.13;;
3133;SDS011;1577;49.912;10.924;2023-04-24T03:38:30;2.20;;;1.10;;
3133;SDS011;1577;49.912;10.924;2023-04-24T03:40:55;2.23;;;0.90;;
3133;SDS011;1577;49.912;10.924;2023-04-24T03:43:21;2.07;;;1.20;;
3133;SDS011;1577;49.912;10.924;2023-04-24T03:45:46;2.27;;;1.27;;
3133;SDS011;1577;49.912;10.924;2023-04-24T03:48:12;2.60;;;1.33;;
3133;SDS011;1577;49.912;10.924;2023-04-24T03:50:37;1.67;;;0.97;;
3133;SDS011;1577;49.912;10.924;2023-04-24T03:53:03;2.40;;;0.97;;
3133;SDS011;1577;49.912;10.924;2023-04-24T03:55:29;1.40;;;0.83;;
3133;SDS011;1577;49.912;10.924;2023-04-24T03:57:54;4.30;;;1.27;;
3133;SDS011;1577;49.912;10.924;2023-04-24T04:00:20;2.73;;;1.20;;
3133;SDS011;1577;49.912;10.924;2023-04-24T04:02:46;2.83;;;0.97;;
3133;SDS011;1577;49.912;10.924;2023-04-24T04:05:11;1.40;;;0.90;;
3133;SDS011;1577;49.912;10.924;2023-04-24T04:07:37;3.10;;;1.00;;
3133;SDS011;1577;49.912;10.924;2023-04-24T04:10:03;2.50;;;1.23;;
3133;SDS011;1577;49.912;10.924;2023-04-24T04:12:28;1.90;;;1.10;;
3133;SDS011;1577;49.912;10.924;2023-04-24T04:14:54;4.00;;;1.30;;
3133;SDS011;1577;49.912;10.924;2023-04-24T04:17:20;3.87;;;1.20;;
3133;SDS011;1577;49.912;10.924;2023-04-24T04:19:46;2.50;;;1.33;;
3133;SDS011;1577;49.912;10.924;2023-04-24T04:22:11;2.23;;;1.37;;
3133;SDS011;1577;49.912;10.924;2023-04-24T04:24:37;2.57;;;1.20;;
3133;SDS011;1577;49.912;10.924;2023-04-24T04:27:03;2.77;;;1.23;;
3133;SDS011;1577;49.912;10.924;2023-04-24T04:29:29;2.37;;;1.57;;
3133;SDS011;1577;49.912;10.924;2023-04-24T04:31:56;3.00;;;1.17;;
3133;SDS011;1577;49.912;10.924;2023-04-24T04:34:22;2.37;;;1.37;;
3133;SDS011;1577;49.912;10.924;2023-04-24T04:36:48;2.50;;;1.33;;
3133;SDS011;1577;49.912;10.924;2023-04-24T04:39:15;3.63;;;1.40;;
3133;SDS011;1577;49.912;10.924;2023-04-24T04:41:41;3.63;;;1.60;;
3133;SDS011;1577;49.912;10.924;2023-04-24T04:44:07;3.30;;;1.50;;
3133;SDS011;1577;49.912;10.924;2023-04-24T04:46:33;2.83;;;1.50;;
3133;SDS011;1577;49.912;10.924;2023-04-24T04:49:00;4.40;;;1.47;;
3133;SDS011;1577;49.912;10.924;2023-04-24T04:51:26;3.33;;;1.77;;
3133;SDS011;1577;49.912;10.924;2023-04-24T04:53:52;4.03;;;1.30;;
3133;SDS011;1577;49.912;10.924;2023-04-24T04:56:18;2.17;;;1.40;;
3133;SDS011;1577;49.912;10.924;2023-04-24T04:58:43;2.63;;;1.13;;
3133;SDS011;1577;49.912;10.924;2023-04-24T05:01:09;2.50;;;1.13;;
3133;SDS011;1577;49.912;10.924;2023-04-24T05:03:34;3.33;;;1.50;;
3133;SDS011;1577;49.912;10.924;2023-04-24T05:06:00;2.40;;;1.50;;
3133;SDS011;1577;49.912;10.924;2023-04-24T05:08:27;2.63;;;1.20;;
3133;SDS011;1577;49.912;10.924;2023-04-24T05:10:52;2.90;;;1.17;;
3133;SDS011;1577;49.912;10.924;2023-04-24T05:13:18;2.40;;;1.37;;
3133;SDS011;1577;49.912;10.924;2023-04-24T05:15:44;2.60;;;1.50;;
3133;SDS011;1577;49.912;10.924;2023-04-24T05:18:10;2.77;;;1.20;;
3133;SDS011;1577;49.912;10.924;2023-04-24T05:20:36;2.90;;;1.27;;
3133;SDS011;1577;49.912;10.924;2023-04-24T05:23:01;3.10;;;1.33;;
3133;SDS011;1577;49.912;10.924;2023-04-24T05:25:27;1.93;;;1.20;;
3133;SDS011;1577;49.912;10.924;2023-04-24T05:27:52;4.03;;;1.30;;
3133;SDS011;1577;49.912;10.924;2023-04-24T05:30:18;3.07;;;1.10;;
3133;SDS011;1577;49.912;10.924;2023-04-24T05:32:44;2.70;;;0.90;;
3133;SDS011;1577;49.912;10.924;2023-04-24T05:35:10;1.80;;;0.93;;
3133;SDS011;1577;49.912;10.924;2023-04-24T05:37:36;1.83;;;1.10;;
3133;SDS011;1577;49.912;10.924;2023-04-24T05:40:02;3.30;;;1.13;;
3133;SDS011;1577;49.912;10.924;2023-04-24T05:42:30;1.90;;;1.03;;
3133;SDS011;1577;49.912;10.924;2023-04-24T05:44:55;1.80;;;1.00;;
3133;SDS011;1577;49.912;10.924;2023-04-24T05:47:21;2.03;;;1.10;;
3133;SDS011;1577;49.912;10.924;2023-04-24T05:49:47;3.50;;;1.40;;
3133;SDS011;1577;49.912;10.924;2023-04-24T05:52:13;1.90;;;1.03;;
3133;SDS011;1577;49.912;10.924;2023-04-24T05:54:38;2.20;;;1.00;;
3133;SDS011;1577;49.912;10.924;2023-04-24T05:57:04;2.27;;;1.00;;
3133;SDS011;1577;49.912;10.924;2023-04-24T05:59:33;2.10;;;1.10;;
3133;SDS011;1577;49.912;10.924;2023-04-24T06:01:59;3.83;;;1.07;;
3133;SDS011;1577;49.912;10.924;2023-04-24T06:04:25;4.13;;;1.30;;
3133;SDS011;1577;49.912;10.924;2023-04-24T06:06:50;2.50;;;1.00;;
3133;SDS011;1577;49.912;10.924;2023-04-24T06:09:20;2.07;;;1.10;;
3133;SDS011;1577;49.912;10.924;2023-04-24T06:11:49;1.50;;;1.00;;
3133;SDS011;1577;49.912;10.924;2023-04-24T06:14:17;3.50;;;0.90;;
3133;SDS011;1577;49.912;10.924;2023-04-24T06:16:43;1.67;;;0.80;;
3133;SDS011;1577;49.912;10.924;2023-04-24T06:19:09;2.50;;;1.03;;
3133;SDS011;1577;49.912;10.924;2023-04-24T06:21:34;3.50;;;0.90;;
3133;SDS011;1577;49.912;10.924;2023-04-24T06:24:00;2.17;;;0.90;;
3133;SDS011;1577;49.912;10.924;2023-04-24T06:26:26;1.30;;;0.77;;
3133;SDS011;1577;49.912;10.924;2023-04-24T06:28:51;2.40;;;0.83;;
3133;SDS011;1577;49.912;10.924;2023-04-24T06:31:19;2.63;;;0.90;;
3133;SDS011;1577;49.912;10.924;2023-04-24T06:33:45;1.50;;;0.87;;
3133;SDS011;1577;49.912;10.924;2023-04-24T06:36:11;3.80;;;1.20;;
3133;SDS011;1577;49.912;10.924;2023-04-24T06:38:37;1.80;;;0.90;;
3133;SDS011;1577;49.912;10.924;2023-04-24T06:41:02;2.33;;;1.00;;
3133;SDS011;1577;49.912;10.924;2023-04-24T06:43:30;2.00;;;1.10;;
3133;SDS011;1577;49.912;10.924;2023-04-24T06:45:56;3.30;;;1.03;;
3133;SDS011;1577;49.912;10.924;2023-04-24T06:48:23;1.70;;;0.87;;
3133;SDS011;1577;49.912;10.924;2023-04-24T06:50:50;2.00;;;0.70;;
3133;SDS011;1577;49.912;10.924;2023-04-24T06:53:15;5.70;;;1.43;;
3133;SDS011;1577;49.912;10.924;2023-04-24T06:55:41;1.63;;;0.80;;
3133;SDS011;1577;49.912;10.924;2023-04-24T06:58:08;2.53;;;0.80;;
3133;SDS011;1577;49.912;10.924;2023-04-24T07:00:34;1.93;;;0.90;;
3133;SDS011;1577;49.912;10.924;2023-04-24T07:02:59;2.53;;;0.80;;
3133;SDS011;1577;49.912;10.924;2023-04-24T07:05:25;1.37;;;0.83;;
3133;SDS011;1577;49.912;10.924;2023-04-24T07:07:51;1.30;;;0.70;;
3133;SDS011;1577;49.912;10.924;2023-04-24T07:10:16;1.87;;;0.93;;
3133;SDS011;1577;49.912;10.924;2023-04-24T07:12:43;1.57;;;0.93;;
3133;SDS011;1577;49.912;10.924;2023-04-24T07:15:08;1.30;;;0.83;;
3133;SDS011;1577;49.912;10.924;2023-04-24T07:17:34;2.17;;;0.80;;
3133;SDS011;1577;49.912;10.924;2023-04-24T07:20:00;2.23;;;0.83;;
3133;SDS011;1577;49.912;10.924;2023-04-24T07:22:26;1.87;;;0.73;;
3133;SDS011;1577;49.912;10.924;2023-04-24T07:24:51;1.40;;;0.63;;
3133;SDS011;1577;49.912;10.924;2023-04-24T07:27:17;1.50;;;0.90;;
3133;SDS011;1577;49.912;10.924;2023-04-24T07:29:42;2.23;;;0.97;;
3133;SDS011;1577;49.912;10.924;2023-04-24T07:32:08;1.27;;;0.80;;
3133;SDS011;1577;49.912;10.924;2023-04-24T07:34:34;1.60;;;0.80;;
3133;SDS011;1577;49.912;10.924;2023-04-24T07:37:00;2.20;;;0.97;;
3133;SDS011;1577;49.912;10.924;2023-04-24T07:39:25;1.40;;;0.80;;
3133;SDS011;1577;49.912;10.924;2023-04-24T07:41:51;1.77;;;0.70;;
3133;SDS011;1577;49.912;10.924;2023-04-24T07:44:17;3.70;;;0.90;;
3133;SDS011;1577;49.912;10.924;2023-04-24T07:46:42;1.70;;;0.80;;
3133;SDS011;1577;49.912;10.924;2023-04-24T07:49:08;2.07;;;0.90;;
3133;SDS011;1577;49.912;10.924;2023-04-24T07:51:34;1.30;;;0.80;;
3133;SDS011;1577;49.912;10.924;2023-04-24T07:54:03;1.50;;;0.80;;
3133;SDS011;1577;49.912;10.924;2023-04-24T07:56:31;2.00;;;1.00;;
3133;SDS011;1577;49.912;10.924;2023-04-24T07:58:57;2.23;;;0.80;;
3133;SDS011;1577;49.912;10.924;2023-04-24T08:01:23;2.60;;;0.90;;
3133;SDS011;1577;49.912;10.924;2023-04-24T08:03:49;2.17;;;0.93;;
3133;SDS011;1577;49.912;10.924;2023-04-24T08:06:15;2.13;;;0.80;;
3133;SDS011;1577;49.912;10.924;2023-04-24T08:08:41;1.30;;;0.80;;
3133;SDS011;1577;49.912;10.924;2023-04-24T08:11:06;2.70;;;1.07;;
3133;SDS011;1577;49.912;10.924;2023-04-24T08:13:32;3.20;;;1.10;;
3133;SDS011;1577;49.912;10.924;2023-04-24T08:15:57;1.43;;;0.87;;
3133;SDS011;1577;49.912;10.924;2023-04-24T08:18:23;1.70;;;0.93;;
3133;SDS011;1577;49.912;10.924;2023-04-24T08:20:48;1.67;;;0.90;;
3133;SDS011;1577;49.912;10.924;2023-04-24T08:23:14;2.00;;;1.00;;
3133;SDS011;1577;49.912;10.924;2023-04-24T08:25:40;2.17;;;0.90;;
3133;SDS011;1577;49.912;10.924;2023-04-24T08:28:05;2.50;;;1.20;;
3133;SDS011;1577;49.912;10.924;2023-04-24T08:30:33;1.63;;;1.00;;
3133;SDS011;1577;49.912;10.924;2023-04-24T08:32:59;1.93;;;1.20;;
3133;SDS011;1577;49.912;10.924;2023-04-24T08:35:25;3.00;;;0.97;;
3133;SDS011;1577;49.912;10.924;2023-04-24T08:37:51;1.63;;;0.87;;
3133;SDS011;1577;49.912;10.924;2023-04-24T08:40:18;1.53;;;0.93;;
3133;SDS011;1577;49.912;10.924;2023-04-24T08:42:47;2.70;;;1.27;;
3133;SDS011;1577;49.912;10.924;2023-04-24T08:45:15;2.63;;;1.00;;
3133;SDS011;1577;49.912;10.924;2023-04-24T08:47:41;1.93;;;1.20;;
3133;SDS011;1577;49.912;10.924;2023-04-24T08:50:07;3.27;;;1.10;;
3133;SDS011;1577;49.912;10.924;2023-04-24T08:52:34;1.87;;;1.00;;
3133;SDS011;1577;49.912;10.924;2023-04-24T08:55:00;3.80;;;1.50;;
3133;SDS011;1577;49.912;10.924;2023-04-24T08:57:27;2.00;;;1.40;;
3133;SDS011;1577;49.912;10.924;2023-04-24T08:59:54;2.07;;;1.13;;
3133;SDS011;1577;49.912;10.924;2023-04-24T09:02:21;2.20;;;1.33;;
3133;SDS011;1577;49.912;10.924;2023-04-24T09:04:48;3.13;;;1.50;;
3133;SDS011;1577;49.912;10.924;2023-04-24T09:07:15;3.70;;;1.57;;
3133;SDS011;1577;49.912;10.924;2023-04-24T09:09:43;5.80;;;1.37;;
3133;SDS011;1577;49.912;10.924;2023-04-24T09:12:09;1.60;;;0.90;;
3133;SDS011;1577;49.912;10.924;2023-04-24T09:14:35;2.83;;;1.33;;
3133;SDS011;1577;49.912;10.924;2023-04-24T09:17:04;2.40;;;1.23;;
3133;SDS011;1577;49.912;10.924;2023-04-24T09:19:31;3.10;;;0.90;;
3133;SDS011;1577;49.912;10.924;2023-04-24T09:21:56;2.57;;;1.33;;
3133;SDS011;1577;49.912;10.924;2023-04-24T09:24:22;1.40;;;1.00;;
3133;SDS011;1577;49.912;10.924;2023-04-24T09:26:48;1.60;;;1.00;;
3133;SDS011;1577;49.912;10.924;2023-04-24T09:29:20;2.80;;;1.30;;
3133;SDS011;1577;49.912;10.924;2023-04-24T09:31:46;2.90;;;1.40;;
3133;SDS011;1577;49.912;10.924;2023-04-24T09:34:12;3.57;;;1.10;;
3133;SDS011;1577;49.912;10.924;2023-04-24T09:36:39;2.90;;;1.20;;
3133;SDS011;1577;49.912;10.924;2023-04-24T09:39:07;1.30;;;0.80;;
3133;SDS011;1577;49.912;10.924;2023-04-24T09:41:35;1.70;;;1.00;;
3133;SDS011;1577;49.912;10.924;2023-04-24T09:44:13;2.47;;;0.90;;
3133;SDS011;1577;49.912;10.924;2023-04-24T09:46:44;1.60;;;1.00;;
3133;SDS011;1577;49.912;10.924;2023-04-24T09:49:14;2.80;;;1.13;;
3133;SDS011;1577;49.912;10.924;2023-04-24T09:51:44;2.03;;;1.30;;
3133;SDS011;1577;49.912;10.924;2023-04-24T09:54:14;1.87;;;1.07;;
3133;SDS011;1577;49.912;10.924;2023-04-24T09:56:45;1.87;;;1.00;;
3133;SDS011;1577;49.912;10.924;2023-04-24T09:59:12;3.70;;;1.33;;
3133;SDS011;1577;49.912;10.924;2023-04-24T10:01:39;1.87;;;1.17;;
3133;SDS011;1577;49.912;10.924;2023-04-24T10:04:14;2.17;;;1.23;;
3133;SDS011;1577;49.912;10.924;2023-04-24T10:06:44;3.73;;;1.50;;
3133;SDS011;1577;49.912;10.924;2023-04-24T10:09:10;2.27;;;1.30;;
3133;SDS011;1577;49.912;10.924;2023-04-24T10:11:40;1.50;;;1.10;;
3133;SDS011;1577;49.912;10.924;2023-04-24T10:14:09;2.20;;;1.10;;
3133;SDS011;1577;49.912;10.924;2023-04-24T10:16:36;3.77;;;1.57;;
3133;SDS011;1577;49.912;10.924;2023-04-24T10:19:03;3.20;;;1.63;;
3133;SDS011;1577;49.912;10.924;2023-04-24T10:21:28;2.80;;;1.50;;
3133;SDS011;1577;49.912;10.924;2023-04-24T10:23:55;5.17;;;2.20;;
3133;SDS011;1577;49.912;10.924;2023-04-24T10:26:21;4.47;;;1.67;;
3133;SDS011;1577;49.912;10.924;2023-04-24T10:28:47;2.27;;;1.20;;
3133;SDS011;1577;49.912;10.924;2023-04-24T10:31:14;2.63;;;1.23;;
3133;SDS011;1577;49.912;10.924;2023-04-24T10:33:43;6.33;;;3.10;;
3133;SDS011;1577;49.912;10.924;2023-04-24T10:36:10;2.50;;;1.30;;
3133;SDS011;1577;49.912;10.924;2023-04-24T10:38:39;3.53;;;0.90;;
3133;SDS011;1577;49.912;10.924;2023-04-24T10:41:07;1.30;;;0.73;;
3133;SDS011;1577;49.912;10.924;2023-04-24T10:43:45;1.53;;;0.63;;
3133;SDS011;1577;49.912;10.924;2023-04-24T10:46:10;1.50;;;0.70;;
3133;SDS011;1577;49.912;10.924;2023-04-24T10:48:44;1.30;;;0.60;;
3133;SDS011;1577;49.912;10.924;2023-04-24T10:51:18;1.33;;;0.80;;
3133;SDS011;1577;49.912;10.924;2023-04-24T10:54:21;2.03;;;0.90;;
3133;SDS011;1577;49.912;10.924;2023-04-24T10:56:52;1.43;;;0.80;;
3133;SDS011;1577;49.912;10.924;2023-04-24T10:59:25;1.40;;;0.83;;
3133;SDS011;1577;49.912;10.924;2023-04-24T11:01:53;1.70;;;1.00;;
3133;SDS011;1577;49.912;10.924;2023-04-24T11:04:29;1.90;;;0.70;;
3133;SDS011;1577;49.912;10.924;2023-04-24T11:06:56;3.60;;;1.00;;
3133;SDS011;1577;49.912;10.924;2023-04-24T11:09:22;1.77;;;0.90;;
3133;SDS011;1577;49.912;10.924;2023-04-24T11:11:50;1.60;;;0.90;;
3133;SDS011;1577;49.912;10.924;2023-04-24T11:17:41;4.40;;;1.20;;
3133;SDS011;1577;49.912;10.924;2023-04-24T11:20:08;1.97;;;1.10;;
3133;SDS011;1577;49.912;10.924;2023-04-24T11:22:37;1.57;;;0.90;;
3133;SDS011;1577;49.912;10.924;2023-04-24T11:25:06;2.17;;;1.10;;
3133;SDS011;1577;49.912;10.924;2023-04-24T11:27:39;4.57;;;1.63;;
3133;SDS011;1577;49.912;10.924;2023-04-24T11:30:06;5.03;;;1.40;;
3133;SDS011;1577;49.912;10.924;2023-04-24T11:35:16;2.80;;;1.00;;
3133;SDS011;1577;49.912;10.924;2023-04-24T11:37:43;3.30;;;1.50;;
3133;SDS011;1577;49.912;10.924;2023-04-24T11:40:14;2.20;;;1.20;;
3133;SDS011;1577;49.912;10.924;2023-04-24T11:42:42;3.63;;;1.50;;
3133;SDS011;1577;49.912;10.924;2023-04-24T11:45:10;2.43;;;1.40;;
3133;SDS011;1577;49.912;10.924;2023-04-24T11:47:43;4.13;;;1.57;;
3133;SDS011;1577;49.912;10.924;2023-04-24T11:50:11;1.70;;;1.23;;
3133;SDS011;1577;49.912;10.924;2023-04-24T11:52:41;3.10;;;1.47;;
3133;SDS011;1577;49.912;10.924;2023-04-24T11:57:42;2.50;;;1.10;;
3133;SDS011;1577;49.912;10.924;2023-04-24T12:00:32;2.37;;;1.20;;
3133;SDS011;1577;49.912;10.924;2023-04-24T12:03:09;1.73;;;1.10;;
3133;SDS011;1577;49.912;10.924;2023-04-24T12:05:36;3.20;;;1.47;;
3133;SDS011;1577;49.912;10.924;2023-04-24T12:08:02;3.93;;;1.83;;
3133;SDS011;1577;49.912;10.924;2023-04-24T12:10:28;3.40;;;1.50;;
3133;SDS011;1577;49.912;10.924;2023-04-24T12:12:56;6.83;;;1.50;;
3133;SDS011;1577;49.912;10.924;2023-04-24T12:15:22;1.80;;;1.10;;
3133;SDS011;1577;49.912;10.924;2023-04-24T12:17:50;2.03;;;1.20;;
3133;SDS011;1577;49.912;10.924;2023-04-24T12:20:17;2.23;;;1.33;;
3133;SDS011;1577;49.912;10.924;2023-04-24T12:25:21;2.13;;;1.30;;
3133;SDS011;1577;49.912;10.924;2023-04-24T12:27:52;1.83;;;1.20;;
3133;SDS011;1577;49.912;10.924;2023-04-24T12:30:27;3.43;;;1.73;;
3133;SDS011;1577;49.912;10.924;2023-04-24T12:32:56;2.10;;;1.10;;
3133;SDS011;1577;49.912;10.924;2023-04-24T12:35:24;2.87;;;1.40;;
3133;SDS011;1577;49.912;10.924;2023-04-24T12:37:52;3.57;;;2.03;;
3133;SDS011;1577;49.912;10.924;2023-04-24T12:40:18;1.30;;;0.80;;
3133;SDS011;1577;49.912;10.924;2023-04-24T12:42:45;4.70;;;1.40;;
3133;SDS011;1577;49.912;10.924;2023-04-24T12:45:12;4.20;;;2.10;;
3133;SDS011;1577;49.912;10.924;2023-04-24T12:47:39;2.50;;;1.47;;
3133;SDS011;1577;49.912;10.924;2023-04-24T12:50:05;5.00;;;2.07;;
3133;SDS011;1577;49.912;10.924;2023-04-24T12:52:32;3.40;;;1.57;;
3133;SDS011;1577;49.912;10.924;2023-04-24T12:54:59;6.10;;;1.70;;
3133;SDS011;1577;49.912;10.924;2023-04-24T12:57:26;3.23;;;1.80;;
3133;SDS011;1577;49.912;10.924;2023-04-24T12:59:56;2.50;;;1.40;;
3133;SDS011;1577;49.912;10.924;2023-04-24T13:02:23;4.50;;;1.43;;
3133;SDS011;1577;49.912;10.924;2023-04-24T13:04:49;3.30;;;1.60;;
3133;SDS011;1577;49.912;10.924;2023-04-24T13:07:16;2.07;;;1.10;;
3133;SDS011;1577;49.912;10.924;2023-04-24T13:09:42;1.70;;;1.20;;
3133;SDS011;1577;49.912;10.924;2023-04-24T13:12:09;4.67;;;1.93;;
3133;SDS011;1577;49.912;10.924;2023-04-24T13:14:35;3.60;;;1.83;;
3133;SDS011;1577;49.912;10.924;2023-04-24T13:17:01;1.70;;;1.00;;
3133;SDS011;1577;49.912;10.924;2023-04-24T13:19:28;1.63;;;1.00;;
3133;SDS011;1577;49.912;10.924;2023-04-24T13:21:54;3.10;;;1.10;;
3133;SDS011;1577;49.912;10.924;2023-04-24T13:24:21;1.30;;;0.80;;
3133;SDS011;1577;49.912;10.924;2023-04-24T13:26:50;4.30;;;1.30;;
3133;SDS011;1577;49.912;10.924;2023-04-24T13:29:17;1.70;;;1.10;;
3133;SDS011;1577;49.912;10.924;2023-04-24T13:31:42;1.70;;;1.00;;
3133;SDS011;1577;49.912;10.924;2023-04-24T13:34:08;1.70;;;1.10;;
3133;SDS011;1577;49.912;10.924;2023-04-24T13:36:34;1.57;;;1.00;;
3133;SDS011;1577;49.912;10.924;2023-04-24T13:39:00;1.47;;;0.73;;
3133;SDS011;1577;49.912;10.924;2023-04-24T13:41:25;1.93;;;1.00;;
3133;SDS011;1577;49.912;10.924;2023-04-24T13:43:51;1.50;;;0.70;;
3133;SDS011;1577;49.912;10.924;2023-04-24T13:46:17;1.40;;;0.90;;
3133;SDS011;1577;49.912;10.924;2023-04-24T13:48:43;1.40;;;0.80;;
3133;SDS011;1577;49.912;10.924;2023-04-24T13:51:08;2.50;;;1.10;;
3133;SDS011;1577;49.912;10.924;2023-04-24T13:53:34;1.53;;;1.00;;
3133;SDS011;1577;49.912;10.924;2023-04-24T13:56:03;1.70;;;1.17;;
3133;SDS011;1577;49.912;10.924;2023-04-24T13:58:29;4.00;;;0.93;;
3133;SDS011;1577;49.912;10.924;2023-04-24T14:00:55;2.27;;;1.03;;
3133;SDS011;1577;49.912;10.924;2023-04-24T14:03:21;1.57;;;1.00;;
3133;SDS011;1577;49.912;10.924;2023-04-24T14:05:46;3.10;;;1.10;;
3133;SDS011;1577;49.912;10.924;2023-04-24T14:08:12;1.70;;;0.93;;
3133;SDS011;1577;49.912;10.924;2023-04-24T14:10:37;1.50;;;0.93;;
3133;SDS011;1577;49.912;10.924;2023-04-24T14:13:03;3.80;;;1.37;;
3133;SDS011;1577;49.912;10.924;2023-04-24T14:15:28;1.90;;;1.13;;
3133;SDS011;1577;49.912;10.924;2023-04-24T14:17:54;2.20;;;1.20;;
3133;SDS011;1577;49.912;10.924;2023-04-24T14:20:20;1.80;;;1.20;;
3133;SDS011;1577;49.912;10.924;2023-04-24T14:22:46;2.83;;;1.30;;
3133;SDS011;1577;49.912;10.924;2023-04-24T14:25:12;4.27;;;1.60;;
3133;SDS011;1577;49.912;10.924;2023-04-24T14:27:37;3.00;;;1.80;;
3133;SDS011;1577;49.912;10.924;2023-04-24T14:30:03;3.90;;;1.77;;
3133;SDS011;1577;49.912;10.924;2023-04-24T14:32:30;2.20;;;1.40;;
3133;SDS011;1577;49.912;10.924;2023-04-24T14:34:55;2.80;;;1.50;;
3133;SDS011;1577;49.912;10.924;2023-04-24T14:37:21;2.30;;;1.60;;
3133;SDS011;1577;49.912;10.924;2023-04-24T14:39:46;4.83;;;1.70;;
3133;SDS011;1577;49.912;10.924;2023-04-24T14:42:12;2.77;;;1.57;;
3133;SDS011;1577;49.912;10.924;2023-04-24T14:44:38;2.37;;;1.60;;
3133;SDS011;1577;49.912;10.924;2023-04-24T14:47:04;7.93;;;2.70;;
3133;SDS011;1577;49.912;10.924;2023-04-24T14:49:30;6.60;;;2.87;;
3133;SDS011;1577;49.912;10.924;2023-04-24T14:51:56;11.23;;;2.53;;
3133;SDS011;1577;49.912;10.924;2023-04-24T14:54:21;3.40;;;2.13;;
3133;SDS011;1577;49.912;10.924;2023-04-24T14:56:48;4.00;;;2.30;;
3133;SDS011;1577;49.912;10.924;2023-04-24T14:59:14;5.00;;;3.40;;
3133;SDS011;1577;49.912;10.924;2023-04-24T15:01:40;6.47;;;3.97;;
3133;SDS011;1577;49.912;10.924;2023-04-24T15:04:05;5.50;;;2.73;;
3133;SDS011;1577;49.912;10.924;2023-04-24T15:06:31;4.70;;;2.50;;
3133;SDS011;1577;49.912;10.924;2023-04-24T15:08:57;3.10;;;2.10;;